createdAt,value
2022-07-28T00:01:14.155Z,32.30
2022-07-28T00:03:46.121Z,32.05
2022-07-28T00:06:14.109Z,32.22
2022-07-28T00:08:42.100Z,32.05
2022-07-28T00:11:10.160Z,31.96
2022-07-28T00:13:38.153Z,32.24
2022-07-28T00:16:08.374Z,32.22
2022-07-28T00:18:36.501Z,31.97
2022-07-28T00:21:04.674Z,32.10
2022-07-28T00:23:39.033Z,31.99
2022-07-28T00:26:08.343Z,31.75
2022-07-28T00:28:36.469Z,32.06
2022-07-28T00:31:07.655Z,32.08
2022-07-28T00:33:40.756Z,31.63
2022-07-28T00:36:11.564Z,32.03
2022-07-28T00:38:40.858Z,31.83
2022-07-28T00:41:14.410Z,32.06
2022-07-28T00:43:43.229Z,31.73
2022-07-28T00:46:11.647Z,31.37
2022-07-28T00:48:41.279Z,31.69
2022-07-28T00:51:10.097Z,31.56
2022-07-28T00:53:38.189Z,32.27
2022-07-28T00:56:07.139Z,32.12
2022-07-28T00:58:35.590Z,32.22
2022-07-28T01:01:03.599Z,32.14
2022-07-28T01:03:31.600Z,32.15
2022-07-28T01:06:05.990Z,32.19
2022-07-28T01:08:35.380Z,32.10
2022-07-28T01:11:06.161Z,32.19
2022-07-28T01:13:39.045Z,32.00
2022-07-28T01:16:07.526Z,32.08
2022-07-28T01:18:37.989Z,31.73
2022-07-28T01:21:09.969Z,31.98
2022-07-28T01:23:55.612Z,32.19
2022-07-28T01:26:35.877Z,32.01
2022-07-28T01:29:04.907Z,32.15
2022-07-28T01:31:37.632Z,32.15
2022-07-28T01:34:08.013Z,31.89
2022-07-28T01:36:39.765Z,32.16
2022-07-28T01:39:07.690Z,32.00
2022-07-28T01:41:35.745Z,32.01
2022-07-28T01:44:06.077Z,31.89
2022-07-28T01:46:35.485Z,31.82
2022-07-28T01:49:03.638Z,31.84
2022-07-28T01:51:32.281Z,31.85
2022-07-28T01:54:00.665Z,31.65
2022-07-28T01:56:29.256Z,31.63
2022-07-28T01:58:57.621Z,31.83
2022-07-28T02:01:25.711Z,31.70
2022-07-28T02:03:55.099Z,31.73
2022-07-28T02:06:23.085Z,31.51
2022-07-28T02:08:53.492Z,31.61
2022-07-28T02:11:38.880Z,31.68
2022-07-28T02:14:07.016Z,31.48
2022-07-28T02:16:37.569Z,31.75
2022-07-28T02:19:07.013Z,32.17
2022-07-28T02:21:36.288Z,31.78
2022-07-28T02:24:04.505Z,31.94
2022-07-28T02:26:35.325Z,32.12
2022-07-28T02:29:03.838Z,32.31
2022-07-28T02:31:35.850Z,32.02
2022-07-28T02:34:04.310Z,31.98
2022-07-28T02:36:41.454Z,31.99
2022-07-28T02:39:12.855Z,32.14
2022-07-28T02:41:42.448Z,32.01
2022-07-28T02:44:14.316Z,32.00
2022-07-28T02:46:44.359Z,31.96
2022-07-28T02:49:13.710Z,32.06
2022-07-28T02:51:43.517Z,31.68
2022-07-28T02:54:12.195Z,32.00
2022-07-28T02:56:40.476Z,31.73
2022-07-28T02:59:08.422Z,32.12
2022-07-28T03:01:36.449Z,32.11
2022-07-28T03:04:04.416Z,31.82
2022-07-28T03:06:32.376Z,31.82
2022-07-28T03:09:02.257Z,31.82
2022-07-28T03:11:30.277Z,32.12
2022-07-28T03:13:58.246Z,32.06
2022-07-28T03:16:28.114Z,32.03
2022-07-28T03:18:56.146Z,32.15
2022-07-28T03:21:24.128Z,32.18
2022-07-28T03:23:52.069Z,32.18
2022-07-28T03:26:29.088Z,31.96
2022-07-28T03:28:57.077Z,31.92
2022-07-28T03:31:25.058Z,31.81
2022-07-28T03:33:53.064Z,32.14
2022-07-28T03:36:30.331Z,31.94
2022-07-28T03:39:00.136Z,32.12
2022-07-28T03:41:29.646Z,32.49
2022-07-28T03:43:57.932Z,32.33
2022-07-28T03:46:27.587Z,32.09
2022-07-28T03:48:55.680Z,32.26
2022-07-28T03:51:25.592Z,32.25
2022-07-28T03:53:53.538Z,32.18
2022-07-28T03:56:21.471Z,32.30
2022-07-28T03:58:50.877Z,32.28
2022-07-28T04:01:18.920Z,32.39
2022-07-28T04:03:46.909Z,32.03
2022-07-28T04:06:15.448Z,32.19
2022-07-28T04:08:43.701Z,32.34
2022-07-28T04:11:11.659Z,32.57
2022-07-28T04:13:39.687Z,32.15
2022-07-28T04:16:09.037Z,32.56
2022-07-28T04:18:37.029Z,32.57
2022-07-28T04:21:05.257Z,32.25
2022-07-28T04:23:33.495Z,32.26
2022-07-28T04:26:01.450Z,32.73
2022-07-28T04:28:29.488Z,32.39
2022-07-28T04:30:57.489Z,32.72
2022-07-28T04:33:26.894Z,32.80
2022-07-28T04:35:54.848Z,32.52
2022-07-28T04:38:22.772Z,32.50
2022-07-28T04:40:50.864Z,32.87
2022-07-28T04:43:18.952Z,32.73
2022-07-28T04:45:54.095Z,33.00
2022-07-28T04:48:23.011Z,33.11
2022-07-28T04:50:53.046Z,33.14
2022-07-28T04:53:21.479Z,32.81
2022-07-28T04:55:51.730Z,32.74
2022-07-28T04:58:22.620Z,33.07
2022-07-28T05:00:51.445Z,33.27
2022-07-28T05:03:19.851Z,33.16
2022-07-28T05:05:52.963Z,32.89
2022-07-28T05:08:25.536Z,33.31
2022-07-28T05:10:54.491Z,32.81
2022-07-28T05:13:22.674Z,33.31
2022-07-28T05:15:51.246Z,33.12
2022-07-28T05:18:19.253Z,33.33
2022-07-28T05:20:47.254Z,33.49
2022-07-28T05:23:15.765Z,33.07
2022-07-28T05:25:45.271Z,33.44
2022-07-28T05:28:13.213Z,33.24
2022-07-28T05:30:41.200Z,33.45
2022-07-28T05:33:09.180Z,33.38
2022-07-28T05:35:37.196Z,33.66
2022-07-28T05:38:08.964Z,33.35
2022-07-28T05:40:38.901Z,33.76
2022-07-28T05:43:08.392Z,33.60
2022-07-28T05:45:36.695Z,33.75
2022-07-28T05:48:04.904Z,34.25
2022-07-28T05:50:32.992Z,34.17
2022-07-28T05:53:00.979Z,34.50
2022-07-28T05:55:29.652Z,34.17
2022-07-28T05:57:58.828Z,34.03
2022-07-28T06:00:28.320Z,34.26
2022-07-28T06:03:01.893Z,34.25
2022-07-28T06:05:30.540Z,34.45
2022-07-28T06:07:58.636Z,34.42
2022-07-28T06:10:28.126Z,34.48
2022-07-28T06:12:57.902Z,34.48
2022-07-28T06:15:28.001Z,34.74
2022-07-28T06:17:56.652Z,34.61
2022-07-28T06:20:24.809Z,34.42
2022-07-28T06:22:53.578Z,35.03
2022-07-28T06:25:22.281Z,34.58
2022-07-28T06:27:50.777Z,34.86
2022-07-28T06:30:18.867Z,34.68
2022-07-28T06:32:48.387Z,35.07
2022-07-28T06:35:17.421Z,35.27
2022-07-28T06:37:45.364Z,35.38
2022-07-28T06:40:13.914Z,35.55
2022-07-28T06:42:41.917Z,35.20
2022-07-28T06:45:20.778Z,35.20
2022-07-28T06:47:50.868Z,35.46
2022-07-28T06:50:24.913Z,35.52
2022-07-28T06:52:54.717Z,35.55
2022-07-28T06:55:23.253Z,35.51
2022-07-28T06:57:51.263Z,35.62
2022-07-28T07:00:19.464Z,35.52
2022-07-28T07:02:47.516Z,35.98
2022-07-28T07:05:16.940Z,35.95
2022-07-28T07:07:45.162Z,35.73
2022-07-28T07:10:13.185Z,36.21
2022-07-28T07:12:41.150Z,35.84
2022-07-28T07:15:10.436Z,36.09
2022-07-28T07:17:38.506Z,36.29
2022-07-28T07:20:07.756Z,36.18
2022-07-28T07:22:39.315Z,36.41
2022-07-28T07:25:10.436Z,36.32
2022-07-28T07:27:38.480Z,36.43
2022-07-28T07:30:07.433Z,36.23
2022-07-28T07:32:35.499Z,36.16
2022-07-28T07:35:03.496Z,36.33
2022-07-28T07:37:32.595Z,36.42
2022-07-28T07:40:02.074Z,36.71
2022-07-28T07:42:30.091Z,36.42
2022-07-28T07:44:57.965Z,36.98
2022-07-28T07:47:25.955Z,36.67
2022-07-28T07:49:53.939Z,36.67
2022-07-28T07:52:21.954Z,36.93
2022-07-28T07:54:49.895Z,36.75
2022-07-28T07:57:19.211Z,36.94
2022-07-28T07:59:47.216Z,37.17
2022-07-28T08:02:15.249Z,37.25
2022-07-28T08:04:43.393Z,37.02
2022-07-28T08:07:11.389Z,37.12
2022-07-28T08:12:36.820Z,37.45
2022-07-28T08:15:05.234Z,37.39
2022-07-28T08:17:33.216Z,37.75
2022-07-28T08:20:02.802Z,37.51
2022-07-28T08:22:30.782Z,37.60
2022-07-28T08:25:00.828Z,37.75
2022-07-28T08:27:28.794Z,37.77
2022-07-28T08:29:58.150Z,38.10
2022-07-28T08:32:26.126Z,37.82
2022-07-28T08:35:15.833Z,37.74
2022-07-28T08:37:42.569Z,37.55
2022-07-28T08:40:14.869Z,38.14
2022-07-28T08:42:51.586Z,37.65
2022-07-28T08:45:21.223Z,37.96
2022-07-28T08:48:07.856Z,37.92
2022-07-28T08:50:37.007Z,37.88
2022-07-28T08:53:05.044Z,37.93
2022-07-28T08:55:33.210Z,37.88
2022-07-28T08:58:01.343Z,37.94
2022-07-28T09:00:30.856Z,37.86
2022-07-28T09:02:58.905Z,38.04
2022-07-28T09:05:26.886Z,38.12
2022-07-28T09:07:56.066Z,37.98
2022-07-28T09:10:24.052Z,37.90
2022-07-28T09:12:52.120Z,38.15
2022-07-28T09:15:20.071Z,38.14
2022-07-28T09:17:49.439Z,38.42
2022-07-28T09:20:17.416Z,38.34
2022-07-28T09:22:58.467Z,38.33
2022-07-28T09:25:26.687Z,38.33
2022-07-28T09:27:55.051Z,38.56
2022-07-28T09:30:30.876Z,38.48
2022-07-28T09:33:42.127Z,38.37
2022-07-28T09:36:15.012Z,38.41
2022-07-28T09:38:43.017Z,38.50
2022-07-28T09:41:10.961Z,38.67
2022-07-28T09:43:40.383Z,38.41
2022-07-28T09:46:09.673Z,38.60
2022-07-28T09:48:40.061Z,38.42
2022-07-28T09:51:12.417Z,38.57
2022-07-28T09:53:40.511Z,38.65
2022-07-28T09:56:08.610Z,38.67
2022-07-28T09:58:36.634Z,38.82
2022-07-28T10:01:07.061Z,38.69
2022-07-28T10:03:36.036Z,39.05
2022-07-28T10:06:09.448Z,38.76
2022-07-28T10:08:44.482Z,38.68
2022-07-28T10:11:13.088Z,38.90
2022-07-28T10:13:53.351Z,38.93
2022-07-28T10:16:21.623Z,38.94
2022-07-28T10:18:49.676Z,38.79
2022-07-28T10:21:20.497Z,38.99
2022-07-28T10:23:49.846Z,38.66
2022-07-28T10:26:18.058Z,38.93
2022-07-28T10:28:49.580Z,38.99
2022-07-28T10:31:23.649Z,38.94
2022-07-28T10:33:52.646Z,38.73
2022-07-28T10:36:25.562Z,39.04
2022-07-28T10:38:55.978Z,38.89
2022-07-28T10:41:23.985Z,39.15
2022-07-28T10:43:58.140Z,38.82
2022-07-28T10:46:26.158Z,39.08
2022-07-28T10:48:54.263Z,38.75
2022-07-28T10:51:23.682Z,39.29
2022-07-28T10:53:59.819Z,39.13
2022-07-28T10:56:31.494Z,39.23
2022-07-28T10:59:04.928Z,39.12
2022-07-28T11:01:52.513Z,39.01
2022-07-28T11:04:52.503Z,39.22
2022-07-28T11:07:22.409Z,39.41
2022-07-28T11:09:50.451Z,39.09
2022-07-28T11:12:18.537Z,39.09
2022-07-28T11:14:46.898Z,39.22
2022-07-28T11:17:16.890Z,39.75
2022-07-28T11:22:46.251Z,39.42
2022-07-28T11:25:19.184Z,39.34
2022-07-28T11:28:03.301Z,39.48
2022-07-28T11:30:50.600Z,39.34
2022-07-28T11:33:20.478Z,39.40
2022-07-28T11:35:58.213Z,39.67
2022-07-28T11:38:27.901Z,39.57
2022-07-28T11:40:57.238Z,39.47
2022-07-28T11:43:39.526Z,39.45
2022-07-28T11:46:23.668Z,39.69
2022-07-28T11:49:25.203Z,39.32
2022-07-28T11:52:15.225Z,39.63
2022-07-28T11:54:53.661Z,39.60
2022-07-28T11:57:24.422Z,39.39
2022-07-28T11:59:54.400Z,39.20
2022-07-28T12:02:24.227Z,39.55
2022-07-28T12:05:00.252Z,39.46
2022-07-28T12:07:32.937Z,39.26
2022-07-28T12:10:02.301Z,39.48
2022-07-28T12:12:30.325Z,39.32
2022-07-28T12:15:04.737Z,39.29
2022-07-28T12:17:35.130Z,39.37
2022-07-28T12:20:05.520Z,39.36
2022-07-28T12:22:39.524Z,39.17
2022-07-28T12:25:13.935Z,39.47
2022-07-28T12:27:44.707Z,39.39
2022-07-28T12:30:14.786Z,39.02
2022-07-28T12:32:47.260Z,39.26
2022-07-28T12:35:15.318Z,39.13
2022-07-28T12:37:44.440Z,39.13
2022-07-28T12:40:14.670Z,39.10
2022-07-28T12:42:42.690Z,38.90
2022-07-28T12:45:12.387Z,38.92
2022-07-28T12:47:40.469Z,39.12
2022-07-28T12:50:11.095Z,38.76
2022-07-28T12:52:39.201Z,38.87
2022-07-28T12:55:22.543Z,38.68
2022-07-28T12:57:52.773Z,38.58
2022-07-28T13:00:22.742Z,38.63
2022-07-28T13:02:51.566Z,38.67
2022-07-28T13:05:30.158Z,38.47
2022-07-28T13:08:02.473Z,38.35
2022-07-28T13:10:32.041Z,38.26
2022-07-28T13:13:06.683Z,38.18
2022-07-28T13:15:34.710Z,38.30
2022-07-28T13:18:02.692Z,38.37
2022-07-28T13:20:34.570Z,38.24
2022-07-28T13:23:02.567Z,38.35
2022-07-28T13:25:31.986Z,38.06
2022-07-28T13:28:00.402Z,37.87
2022-07-28T13:30:28.396Z,37.75
2022-07-28T13:32:58.550Z,38.04
2022-07-28T13:35:26.624Z,37.88
2022-07-28T13:37:54.671Z,37.85
2022-07-28T13:40:22.856Z,37.88
2022-07-28T13:42:53.402Z,37.94
2022-07-28T13:45:25.021Z,37.71
2022-07-28T13:47:58.051Z,37.74
2022-07-28T13:50:26.217Z,37.77
2022-07-28T13:52:54.178Z,37.81
2022-07-28T13:55:22.860Z,37.56
2022-07-28T13:57:52.605Z,37.74
2022-07-28T14:00:21.116Z,37.51
2022-07-28T14:02:50.935Z,37.57
2022-07-28T14:05:19.105Z,37.61
2022-07-28T14:07:49.222Z,37.52
2022-07-28T14:10:17.934Z,37.77
2022-07-28T14:12:46.713Z,37.71
2022-07-28T14:15:16.147Z,37.72
2022-07-28T14:17:46.586Z,37.77
2022-07-28T14:20:14.988Z,37.77
2022-07-28T14:22:43.058Z,37.57
2022-07-28T14:25:11.721Z,37.58
2022-07-28T14:27:47.338Z,37.43
2022-07-28T14:30:16.806Z,37.45
2022-07-28T14:32:44.791Z,37.55
2022-07-28T14:35:12.764Z,37.54
2022-07-28T14:38:23.204Z,37.57
2022-07-28T14:40:28.678Z,37.59
2022-07-28T14:42:56.667Z,37.38
2022-07-28T14:45:26.053Z,37.51
2022-07-28T14:47:55.414Z,37.35
2022-07-28T14:50:23.748Z,37.43
2022-07-28T14:52:51.700Z,37.38
2022-07-28T14:58:28.481Z,37.53
2022-07-28T15:00:57.896Z,37.29
2022-07-28T15:03:35.818Z,37.44
2022-07-28T15:06:04.422Z,37.54
2022-07-28T15:08:32.366Z,37.29
2022-07-28T15:11:00.338Z,37.60
2022-07-28T15:13:28.607Z,37.28
2022-07-28T15:15:59.966Z,37.28
2022-07-28T15:18:28.312Z,37.52
2022-07-28T15:20:56.432Z,37.38
2022-07-28T15:23:24.482Z,37.38
2022-07-28T15:25:53.253Z,37.52
2022-07-28T15:28:21.668Z,37.44
2022-07-28T15:30:52.994Z,37.16
2022-07-28T15:33:24.133Z,37.17
2022-07-28T15:35:57.732Z,37.11
2022-07-28T15:38:29.091Z,37.27
2022-07-28T15:40:58.694Z,37.26
2022-07-28T15:43:26.766Z,37.12
2022-07-28T15:45:55.372Z,37.08
2022-07-28T15:48:24.855Z,36.94
2022-07-28T15:50:52.892Z,36.92
2022-07-28T15:53:21.392Z,36.98
2022-07-28T15:55:51.425Z,37.06
2022-07-28T15:58:19.935Z,36.99
2022-07-28T16:00:47.927Z,36.81
2022-07-28T16:03:15.998Z,37.08
2022-07-28T16:05:49.469Z,36.79
2022-07-28T16:08:17.795Z,36.78
2022-07-28T16:10:45.904Z,36.66
2022-07-28T16:13:14.948Z,36.78
2022-07-28T16:15:45.312Z,36.96
2022-07-28T16:18:14.167Z,36.80
2022-07-28T16:20:42.392Z,36.74
2022-07-28T16:23:11.728Z,36.72
2022-07-28T16:25:44.829Z,36.98
2022-07-28T16:28:13.237Z,36.37
2022-07-28T16:30:41.218Z,36.71
2022-07-28T16:33:09.744Z,36.78
2022-07-28T16:35:37.775Z,36.57
2022-07-28T16:38:06.156Z,36.62
2022-07-28T16:40:35.560Z,36.60
2022-07-28T16:43:06.056Z,36.73
2022-07-28T16:45:34.665Z,36.73
2022-07-28T16:48:03.870Z,36.55
2022-07-28T16:50:32.063Z,36.66
2022-07-28T16:53:00.328Z,36.74
2022-07-28T16:55:28.318Z,36.52
2022-07-28T16:57:57.747Z,36.76
2022-07-28T17:00:26.939Z,36.56
2022-07-28T17:02:55.950Z,36.40
2022-07-28T17:05:24.176Z,36.31
2022-07-28T17:07:54.140Z,36.24
2022-07-28T17:10:27.235Z,36.64
2022-07-28T17:12:58.565Z,36.54
2022-07-28T17:15:26.525Z,36.31
2022-07-28T17:17:54.571Z,36.35
2022-07-28T17:20:22.555Z,36.51
2022-07-28T17:22:50.503Z,36.29
2022-07-28T17:28:08.054Z,36.44
2022-07-28T17:30:36.218Z,36.33
2022-07-28T17:33:08.806Z,36.09
2022-07-28T17:35:37.106Z,36.10
2022-07-28T17:38:09.221Z,36.00
2022-07-28T17:40:37.959Z,36.07
2022-07-28T17:43:07.355Z,36.06
2022-07-28T17:45:35.349Z,36.23
2022-07-28T17:48:03.346Z,36.19
2022-07-28T17:50:31.333Z,36.08
2022-07-28T17:52:59.329Z,36.19
2022-07-28T17:55:53.990Z,36.15
2022-07-28T17:58:29.030Z,36.14
2022-07-28T18:00:58.978Z,36.29
2022-07-28T18:03:58.795Z,36.06
2022-07-28T18:06:28.401Z,36.09
2022-07-28T18:08:56.446Z,36.36
2022-07-28T18:11:25.261Z,36.24
2022-07-28T18:14:04.046Z,36.25
2022-07-28T18:16:33.273Z,36.33
2022-07-28T18:19:01.227Z,36.09
2022-07-28T18:21:29.281Z,36.26
2022-07-28T18:23:57.410Z,36.12
2022-07-28T18:26:25.409Z,36.38
2022-07-28T18:28:54.799Z,36.13
2022-07-28T18:31:25.640Z,36.26
2022-07-28T18:33:53.705Z,36.13
2022-07-28T18:36:21.898Z,36.52
2022-07-28T18:38:49.833Z,36.09
2022-07-28T18:41:18.454Z,36.04
2022-07-28T18:43:46.433Z,36.28
2022-07-28T18:46:16.447Z,36.35
2022-07-28T18:48:44.551Z,36.26
2022-07-28T18:51:16.119Z,36.14
2022-07-28T18:53:44.055Z,36.38
2022-07-28T18:56:12.345Z,36.33
2022-07-28T18:58:40.393Z,36.16
2022-07-28T19:01:13.238Z,36.22
2022-07-28T19:03:42.860Z,36.38
2022-07-28T19:06:11.850Z,36.21
2022-07-28T19:08:39.878Z,36.23
2022-07-28T19:11:07.873Z,36.26
2022-07-28T19:13:35.882Z,36.22
2022-07-28T19:16:03.865Z,36.28
2022-07-28T19:18:31.880Z,36.51
2022-07-28T19:21:01.279Z,36.16
2022-07-28T19:23:30.215Z,36.24
2022-07-28T19:25:58.246Z,36.16
2022-07-28T19:28:29.188Z,36.36
2022-07-28T19:30:58.698Z,36.23
2022-07-28T19:33:26.933Z,36.31
2022-07-28T19:35:54.940Z,36.32
2022-07-28T19:38:24.401Z,36.47
2022-07-28T19:40:52.445Z,36.47
2022-07-28T19:43:20.410Z,36.50
2022-07-28T19:45:48.453Z,36.35
2022-07-28T19:48:16.478Z,36.38
2022-07-28T19:50:50.869Z,36.40
2022-07-28T19:53:19.440Z,36.26
2022-07-28T19:56:09.669Z,36.46
2022-07-28T19:58:37.981Z,36.62
2022-07-28T20:01:06.095Z,36.61
2022-07-28T20:04:01.392Z,36.60
2022-07-28T20:06:24.964Z,36.40
2022-07-28T20:08:54.072Z,36.64
2022-07-28T20:11:23.536Z,36.35
2022-07-28T20:13:51.583Z,36.62
2022-07-28T20:16:20.532Z,36.79
2022-07-28T20:18:48.658Z,36.48
2022-07-28T20:21:16.973Z,36.77
2022-07-28T20:23:45.009Z,36.80
2022-07-28T20:26:14.342Z,36.88
2022-07-28T20:28:44.137Z,36.58
2022-07-28T20:31:16.698Z,36.43
2022-07-28T20:33:44.993Z,36.61
2022-07-28T20:36:13.020Z,36.89
2022-07-28T20:38:40.986Z,36.66
2022-07-28T20:41:09.018Z,36.52
2022-07-28T20:43:37.896Z,36.71
2022-07-28T20:46:07.334Z,36.70
2022-07-28T20:48:35.856Z,36.73
2022-07-28T20:51:03.916Z,36.58
2022-07-28T20:53:31.901Z,36.74
2022-07-28T20:55:59.892Z,36.92
2022-07-28T20:58:27.939Z,36.74
2022-07-28T21:00:58.248Z,36.58
2022-07-28T21:03:27.592Z,36.76
2022-07-28T21:05:55.528Z,36.68
2022-07-28T21:08:24.208Z,36.64
2022-07-28T21:10:52.161Z,36.89
2022-07-28T21:13:20.171Z,36.93
2022-07-28T21:15:48.253Z,36.75
2022-07-28T21:18:17.484Z,36.91
2022-07-28T21:20:46.984Z,37.00
2022-07-28T21:23:14.917Z,36.58
2022-07-28T21:25:45.331Z,36.76
2022-07-28T21:28:31.072Z,36.68
2022-07-28T21:30:59.043Z,36.83
2022-07-28T21:33:27.969Z,36.75
2022-07-28T21:35:57.347Z,36.56
2022-07-28T21:38:25.339Z,36.78
2022-07-28T21:40:53.378Z,36.74
2022-07-28T21:43:21.400Z,37.03
2022-07-28T21:45:49.388Z,37.05
2022-07-28T21:48:23.218Z,37.14
2022-07-28T21:50:51.256Z,36.75
2022-07-28T21:53:20.674Z,36.93
2022-07-28T21:55:48.701Z,36.76
2022-07-28T21:58:16.737Z,36.93
2022-07-28T22:00:44.750Z,37.18
2022-07-28T22:03:12.780Z,37.28
2022-07-28T22:05:41.671Z,37.01
2022-07-28T22:08:09.683Z,37.24
2022-07-28T22:10:39.149Z,37.00
2022-07-28T22:13:07.082Z,36.83
2022-07-28T22:15:35.116Z,37.19
2022-07-28T22:18:03.100Z,36.99
2022-07-28T22:20:31.340Z,36.82
2022-07-28T22:22:59.317Z,36.99
2022-07-28T22:25:27.394Z,36.78
2022-07-28T22:27:56.778Z,37.00
2022-07-28T22:30:24.939Z,37.22
2022-07-28T22:32:52.959Z,36.94
2022-07-28T22:35:20.951Z,36.95
2022-07-28T22:37:49.508Z,37.10
2022-07-28T22:40:17.512Z,37.29
2022-07-28T22:42:45.772Z,36.96
2022-07-28T22:45:15.294Z,36.97
2022-07-28T22:48:03.299Z,37.33
2022-07-28T22:50:31.305Z,37.36
2022-07-28T22:52:59.286Z,37.29
2022-07-28T22:58:13.176Z,37.01
2022-07-28T23:00:42.602Z,37.24
2022-07-28T23:03:13.141Z,37.30
2022-07-28T23:05:41.709Z,37.18
2022-07-28T23:08:10.651Z,37.26
2022-07-28T23:10:38.959Z,37.43
2022-07-28T23:13:07.100Z,37.54
2022-07-28T23:15:40.639Z,37.54
2022-07-28T23:18:11.356Z,37.46
2022-07-28T23:20:39.747Z,37.27
2022-07-28T23:23:07.983Z,37.50
2022-07-28T23:25:37.313Z,37.50
2022-07-28T23:28:05.757Z,37.45
2022-07-28T23:30:33.944Z,37.48
2022-07-28T23:33:02.047Z,37.43
2022-07-28T23:35:31.584Z,37.38
2022-07-28T23:37:59.722Z,37.28
2022-07-28T23:40:27.986Z,37.21
2022-07-28T23:42:56.071Z,37.51
2022-07-28T23:45:24.141Z,37.32
2022-07-28T23:47:58.137Z,37.35
2022-07-28T23:50:26.937Z,37.57
2022-07-28T23:52:56.449Z,37.68
2022-07-28T23:55:28.447Z,37.77
2022-07-28T23:57:56.536Z,37.85
